sensor_id;sensor_type;location;lat;lon;timestamp;pressure;altitude;pressure_sealevel;temperature;humidity
53011;BME280;42803;55.762;38.084;2024-01-30T00:00:07;100604.69;;;-2.43;100.00
53011;BME280;42803;55.762;38.084;2024-01-30T00:02:38;100601.22;;;-2.43;100.00
53011;BME280;42803;55.762;38.084;2024-01-30T00:05:08;100597.94;;;-2.42;100.00
53011;BME280;42803;55.762;38.084;2024-01-30T00:07:37;100598.38;;;-2.39;100.00
53011;BME280;42803;55.762;38.084;2024-01-30T00:10:08;100603.00;;;-2.37;100.00
53011;BME280;42803;55.762;38.084;2024-01-30T00:12:37;100609.97;;;-2.36;100.00
53011;BME280;42803;55.762;38.084;2024-01-30T00:15:07;100606.72;;;-2.35;100.00
53011;BME280;42803;55.762;38.084;2024-01-30T00:17:37;100600.94;;;-2.39;100.00
53011;BME280;42803;55.762;38.084;2024-01-30T00:20:07;100596.75;;;-2.39;100.00
53011;BME280;42803;55.762;38.084;2024-01-30T00:22:37;100593.28;;;-2.39;100.00
53011;BME280;42803;55.762;38.084;2024-01-30T00:25:08;100600.50;;;-2.42;100.00
53011;BME280;42803;55.762;38.084;2024-01-30T00:27:37;100597.03;;;-2.43;100.00
53011;BME280;42803;55.762;38.084;2024-01-30T00:30:08;100587.25;;;-2.46;100.00
53011;BME280;42803;55.762;38.084;2024-01-30T00:32:37;100586.81;;;-2.49;100.00
53011;BME280;42803;55.762;38.084;2024-01-30T00:35:06;100592.16;;;-2.47;100.00
53011;BME280;42803;55.762;38.084;2024-01-30T00:37:38;100592.84;;;-2.48;100.00
53011;BME280;42803;55.762;38.084;2024-01-30T00:40:09;100579.84;;;-2.44;100.00
53011;BME280;42803;55.762;38.084;2024-01-30T00:42:45;100586.28;;;-2.40;100.00
53011;BME280;42803;55.762;38.084;2024-01-30T00:45:14;100578.63;;;-2.40;100.00
53011;BME280;42803;55.762;38.084;2024-01-30T00:47:44;100589.28;;;-2.37;100.00
53011;BME280;42803;55.762;38.084;2024-01-30T00:50:13;100581.16;;;-2.40;100.00
53011;BME280;42803;55.762;38.084;2024-01-30T00:52:43;100577.00;;;-2.40;100.00
53011;BME280;42803;55.762;38.084;2024-01-30T00:55:14;100579.97;;;-2.37;100.00
53011;BME280;42803;55.762;38.084;2024-01-30T00:57:45;100578.16;;;-2.38;100.00
53011;BME280;42803;55.762;38.084;2024-01-30T01:00:15;100575.59;;;-2.38;100.00
53011;BME280;42803;55.762;38.084;2024-01-30T01:02:45;100576.03;;;-2.35;100.00
53011;BME280;42803;55.762;38.084;2024-01-30T01:05:14;100574.19;;;-2.36;100.00
53011;BME280;42803;55.762;38.084;2024-01-30T01:07:43;100568.16;;;-2.36;100.00
53011;BME280;42803;55.762;38.084;2024-01-30T01:10:17;100564.38;;;-2.33;100.00
53011;BME280;42803;55.762;38.084;2024-01-30T01:12:47;100574.84;;;-2.31;100.00
53011;BME280;42803;55.762;38.084;2024-01-30T01:15:17;100562.97;;;-2.31;100.00
53011;BME280;42803;55.762;38.084;2024-01-30T01:17:47;100562.97;;;-2.31;100.00
53011;BME280;42803;55.762;38.084;2024-01-30T01:20:16;100566.00;;;-2.33;100.00
53011;BME280;42803;55.762;38.084;2024-01-30T01:22:45;100560.91;;;-2.33;100.00
53011;BME280;42803;55.762;38.084;2024-01-30T01:25:15;100549.47;;;-2.30;100.00
53011;BME280;42803;55.762;38.084;2024-01-30T01:27:46;100553.91;;;-2.29;100.00
53011;BME280;42803;55.762;38.084;2024-01-30T01:30:19;100549.44;;;-2.24;100.00
53011;BME280;42803;55.762;38.084;2024-01-30T01:32:50;100550.81;;;-2.21;100.00
53011;BME280;42803;55.762;38.084;2024-01-30T01:35:23;100547.53;;;-2.19;100.00
53011;BME280;42803;55.762;38.084;2024-01-30T01:37:53;100554.50;;;-2.18;100.00
53011;BME280;42803;55.762;38.084;2024-01-30T01:40:24;100553.81;;;-2.17;100.00
53011;BME280;42803;55.762;38.084;2024-01-30T01:42:55;100546.78;;;-2.13;100.00
53011;BME280;42803;55.762;38.084;2024-01-30T01:45:25;100536.75;;;-2.11;100.00
53011;BME280;42803;55.762;38.084;2024-01-30T01:47:55;100535.84;;;-2.12;100.00
53011;BME280;42803;55.762;38.084;2024-01-30T01:50:25;100535.84;;;-2.12;100.00
53011;BME280;42803;55.762;38.084;2024-01-30T01:52:55;100535.84;;;-2.12;100.00
53011;BME280;42803;55.762;38.084;2024-01-30T01:55:25;100533.72;;;-2.09;100.00
53011;BME280;42803;55.762;38.084;2024-01-30T01:57:57;100544.59;;;-2.04;100.00
53011;BME280;42803;55.762;38.084;2024-01-30T02:00:27;100548.31;;;-2.02;100.00
53011;BME280;42803;55.762;38.084;2024-01-30T02:02:56;100538.56;;;-2.05;100.00
53011;BME280;42803;55.762;38.084;2024-01-30T02:05:26;100543.22;;;-2.02;100.00
53011;BME280;42803;55.762;38.084;2024-01-30T02:07:56;100538.94;;;-1.96;100.00
53011;BME280;42803;55.762;38.084;2024-01-30T02:10:25;100539.84;;;-1.96;100.00
53011;BME280;42803;55.762;38.084;2024-01-30T02:12:55;100527.78;;;-1.97;100.00
53011;BME280;42803;55.762;38.084;2024-01-30T02:15:25;100530.78;;;-1.93;100.00
53011;BME280;42803;55.762;38.084;2024-01-30T02:17:55;100538.66;;;-1.92;100.00
53011;BME280;42803;55.762;38.084;2024-01-30T02:20:44;100525.59;;;-1.88;100.00
53011;BME280;42803;55.762;38.084;2024-01-30T02:23:15;100545.38;;;-1.87;100.00
53011;BME280;42803;55.762;38.084;2024-01-30T02:25:45;100546.28;;;-1.86;100.00
53011;BME280;42803;55.762;38.084;2024-01-30T02:28:14;100538.63;;;-1.86;100.00
53011;BME280;42803;55.762;38.084;2024-01-30T02:30:44;100531.16;;;-1.85;100.00
53011;BME280;42803;55.762;38.084;2024-01-30T02:33:13;100535.06;;;-1.81;100.00
53011;BME280;42803;55.762;38.084;2024-01-30T02:35:42;100524.81;;;-1.81;100.00
53011;BME280;42803;55.762;38.084;2024-01-30T02:38:12;100516.94;;;-1.83;100.00
53011;BME280;42803;55.762;38.084;2024-01-30T02:40:42;100517.78;;;-1.77;100.00
53011;BME280;42803;55.762;38.084;2024-01-30T02:43:12;100509.47;;;-1.81;100.00
53011;BME280;42803;55.762;38.084;2024-01-30T02:45:41;100522.47;;;-1.80;100.00
53011;BME280;42803;55.762;38.084;2024-01-30T02:48:10;100518.22;;;-1.74;100.00
53011;BME280;42803;55.762;38.084;2024-01-30T02:50:40;100518.22;;;-1.74;100.00
53011;BME280;42803;55.762;38.084;2024-01-30T02:53:09;100520.03;;;-1.67;100.00
53011;BME280;42803;55.762;38.084;2024-01-30T02:55:38;100524.91;;;-1.68;100.00
53011;BME280;42803;55.762;38.084;2024-01-30T02:58:10;100513.47;;;-1.65;100.00
53011;BME280;42803;55.762;38.084;2024-01-30T03:00:39;100539.59;;;-1.67;100.00
53011;BME280;42803;55.762;38.084;2024-01-30T03:03:09;100540.69;;;-1.65;100.00
53011;BME280;42803;55.762;38.084;2024-01-30T03:05:39;100535.38;;;-1.67;100.00
53011;BME280;42803;55.762;38.084;2024-01-30T03:08:08;100548.19;;;-1.67;100.00
53011;BME280;42803;55.762;38.084;2024-01-30T03:10:37;100547.25;;;-1.67;100.00
53011;BME280;42803;55.762;38.084;2024-01-30T03:13:06;100559.53;;;-1.65;100.00
53011;BME280;42803;55.762;38.084;2024-01-30T03:15:37;100563.03;;;-1.64;100.00
53011;BME280;42803;55.762;38.084;2024-01-30T03:18:07;100563.47;;;-1.61;100.00
53011;BME280;42803;55.762;38.084;2024-01-30T03:20:36;100554.38;;;-1.59;100.00
53011;BME280;42803;55.762;38.084;2024-01-30T03:23:05;100561.34;;;-1.58;100.00
53011;BME280;42803;55.762;38.084;2024-01-30T03:25:34;100573.66;;;-1.56;100.00
53011;BME280;42803;55.762;38.084;2024-01-30T03:28:04;100573.84;;;-1.54;100.00
53011;BME280;42803;55.762;38.084;2024-01-30T03:30:34;100570.09;;;-1.51;100.00
53011;BME280;42803;55.762;38.084;2024-01-30T03:33:05;100579.41;;;-1.51;100.00
53011;BME280;42803;55.762;38.084;2024-01-30T03:35:34;100582.69;;;-1.52;100.00
53011;BME280;42803;55.762;38.084;2024-01-30T03:38:03;100571.72;;;-1.51;100.00
53011;BME280;42803;55.762;38.084;2024-01-30T03:40:33;100571.00;;;-1.50;100.00
53011;BME280;42803;55.762;38.084;2024-01-30T03:43:02;100567.25;;;-1.47;100.00
53011;BME280;42803;55.762;38.084;2024-01-30T03:45:32;100565.41;;;-1.48;100.00
53011;BME280;42803;55.762;38.084;2024-01-30T03:48:02;100563.06;;;-1.46;100.00
53011;BME280;42803;55.762;38.084;2024-01-30T03:50:32;100559.38;;;-1.48;100.00
53011;BME280;42803;55.762;38.084;2024-01-30T03:53:02;100558.38;;;-1.43;100.00
53011;BME280;42803;55.762;38.084;2024-01-30T03:55:31;100562.09;;;-1.41;100.00
53011;BME280;42803;55.762;38.084;2024-01-30T03:58:01;100560.44;;;-1.40;100.00
53011;BME280;42803;55.762;38.084;2024-01-30T04:00:30;100565.28;;;-1.36;100.00
53011;BME280;42803;55.762;38.084;2024-01-30T04:03:00;100581.34;;;-1.37;100.00
53011;BME280;42803;55.762;38.084;2024-01-30T04:05:29;100588.53;;;-1.35;100.00
53011;BME280;42803;55.762;38.084;2024-01-30T04:08:00;100585.47;;;-1.32;100.00
53011;BME280;42803;55.762;38.084;2024-01-30T04:10:29;100579.63;;;-1.31;100.00
53011;BME280;42803;55.762;38.084;2024-01-30T04:12:58;100580.13;;;-1.34;100.00
53011;BME280;42803;55.762;38.084;2024-01-30T04:15:28;100582.19;;;-1.31;100.00
53011;BME280;42803;55.762;38.084;2024-01-30T04:17:57;100581.28;;;-1.32;100.00
53011;BME280;42803;55.762;38.084;2024-01-30T04:20:27;100581.72;;;-1.29;100.00
53011;BME280;42803;55.762;38.084;2024-01-30T04:22:56;100578.16;;;-1.24;100.00
53011;BME280;42803;55.762;38.084;2024-01-30T04:25:27;100578.78;;;-1.19;100.00
53011;BME280;42803;55.762;38.084;2024-01-30T04:27:56;100569.75;;;-1.23;100.00
53011;BME280;42803;55.762;38.084;2024-01-30T04:30:26;100567.31;;;-1.15;100.00
53011;BME280;42803;55.762;38.084;2024-01-30T04:32:55;100564.13;;;-1.20;100.00
53011;BME280;42803;55.762;38.084;2024-01-30T04:35:24;100572.97;;;-1.18;100.00
53011;BME280;42803;55.762;38.084;2024-01-30T04:37:53;100565.06;;;-1.19;100.00
53011;BME280;42803;55.762;38.084;2024-01-30T04:40:22;100575.94;;;-1.15;100.00
53011;BME280;42803;55.762;38.084;2024-01-30T04:42:53;100582.63;;;-1.10;100.00
53011;BME280;42803;55.762;38.084;2024-01-30T04:45:22;100571.88;;;-1.07;100.00
53011;BME280;42803;55.762;38.084;2024-01-30T04:47:52;100575.16;;;-1.08;100.00
53011;BME280;42803;55.762;38.084;2024-01-30T04:50:21;100581.19;;;-1.08;100.00
53011;BME280;42803;55.762;38.084;2024-01-30T04:52:50;100577.72;;;-1.08;100.00
53011;BME280;42803;55.762;38.084;2024-01-30T04:55:20;100564.19;;;-1.07;100.00
53011;BME280;42803;55.762;38.084;2024-01-30T04:57:50;100578.88;;;-1.06;100.00
53011;BME280;42803;55.762;38.084;2024-01-30T05:00:21;100567.13;;;-0.99;100.00
53011;BME280;42803;55.762;38.084;2024-01-30T05:02:50;100563.97;;;-0.90;100.00
53011;BME280;42803;55.762;38.084;2024-01-30T05:05:19;100566.59;;;-0.96;100.00
53011;BME280;42803;55.762;38.084;2024-01-30T05:07:49;100555.94;;;-0.99;100.00
53011;BME280;42803;55.762;38.084;2024-01-30T05:10:18;100556.88;;;-0.99;100.00
53011;BME280;42803;55.762;38.084;2024-01-30T05:12:47;100563.34;;;-0.95;100.00
53011;BME280;42803;55.762;38.084;2024-01-30T05:15:17;100558.22;;;-0.95;100.00
53011;BME280;42803;55.762;38.084;2024-01-30T05:17:47;100571.31;;;-0.99;100.00
53011;BME280;42803;55.762;38.084;2024-01-30T05:20:17;100575.00;;;-0.97;100.00
53011;BME280;42803;55.762;38.084;2024-01-30T05:22:46;100568.03;;;-0.98;100.00
53011;BME280;42803;55.762;38.084;2024-01-30T05:25:16;100586.19;;;-0.96;100.00
53011;BME280;42803;55.762;38.084;2024-01-30T05:27:45;100590.38;;;-0.97;100.00
53011;BME280;42803;55.762;38.084;2024-01-30T05:30:14;100596.00;;;-1.00;100.00
53011;BME280;42803;55.762;38.084;2024-01-30T05:32:44;100596.44;;;-0.96;100.00
53011;BME280;42803;55.762;38.084;2024-01-30T05:35:15;100597.88;;;-0.99;100.00
53011;BME280;42803;55.762;38.084;2024-01-30T05:37:44;100593.66;;;-0.98;100.00
53011;BME280;42803;55.762;38.084;2024-01-30T05:40:13;100594.78;;;-0.96;100.00
53011;BME280;42803;55.762;38.084;2024-01-30T05:42:44;100594.09;;;-0.95;100.00
53011;BME280;42803;55.762;38.084;2024-01-30T05:45:14;100595.22;;;-0.93;100.00
53011;BME280;42803;55.762;38.084;2024-01-30T05:47:43;100585.81;;;-0.87;100.00
53011;BME280;42803;55.762;38.084;2024-01-30T05:50:25;100588.81;;;-0.84;100.00
53011;BME280;42803;55.762;38.084;2024-01-30T05:53:10;100595.06;;;-0.82;100.00
53011;BME280;42803;55.762;38.084;2024-01-30T05:55:40;100605.31;;;-0.82;100.00
53011;BME280;42803;55.762;38.084;2024-01-30T05:58:09;100602.47;;;-0.78;100.00
53011;BME280;42803;55.762;38.084;2024-01-30T06:00:39;100601.34;;;-0.80;100.00
53011;BME280;42803;55.762;38.084;2024-01-30T06:03:08;100614.06;;;-0.74;100.00
53011;BME280;42803;55.762;38.084;2024-01-30T06:05:39;100621.75;;;-0.74;100.00
53011;BME280;42803;55.762;38.084;2024-01-30T06:08:08;100610.09;;;-0.72;100.00
53011;BME280;42803;55.762;38.084;2024-01-30T06:10:38;100612.66;;;-0.72;100.00
53011;BME280;42803;55.762;38.084;2024-01-30T06:13:08;100608.44;;;-0.71;100.00
53011;BME280;42803;55.762;38.084;2024-01-30T06:15:37;100610.59;;;-0.75;100.00
53011;BME280;42803;55.762;38.084;2024-01-30T06:18:06;100607.59;;;-0.78;100.00
53011;BME280;42803;55.762;38.084;2024-01-30T06:20:35;100608.75;;;-0.76;100.00
53011;BME280;42803;55.762;38.084;2024-01-30T06:23:06;100610.38;;;-0.76;100.00
53011;BME280;42803;55.762;38.084;2024-01-30T06:25:35;100611.06;;;-0.77;100.00
53011;BME280;42803;55.762;38.084;2024-01-30T06:28:05;100611.50;;;-0.74;100.00
53011;BME280;42803;55.762;38.084;2024-01-30T06:30:34;100611.53;;;-0.61;100.00
53011;BME280;42803;55.762;38.084;2024-01-30T06:33:04;100628.09;;;-0.59;100.00
53011;BME280;42803;55.762;38.084;2024-01-30T06:35:33;100631.78;;;-0.57;100.00
53011;BME280;42803;55.762;38.084;2024-01-30T06:38:12;100628.94;;;-0.53;100.00
53011;BME280;42803;55.762;38.084;2024-01-30T06:45:53;100631.03;;;-0.38;100.00
53011;BME280;42803;55.762;38.084;2024-01-30T06:48:22;100630.75;;;-0.34;100.00
53011;BME280;42803;55.762;38.084;2024-01-30T06:50:53;100637.59;;;-0.40;100.00
53011;BME280;42803;55.762;38.084;2024-01-30T06:53:24;100635.31;;;-0.44;100.00
53011;BME280;42803;55.762;38.084;2024-01-30T06:55:54;100639.59;;;-0.50;100.00
53011;BME280;42803;55.762;38.084;2024-01-30T06:58:23;100632.63;;;-0.51;100.00
53011;BME280;42803;55.762;38.084;2024-01-30T07:00:52;100640.59;;;-0.55;100.00
53011;BME280;42803;55.762;38.084;2024-01-30T07:03:22;100649.44;;;-0.53;100.00
53011;BME280;42803;55.762;38.084;2024-01-30T07:05:51;100640.94;;;-0.46;100.00
53011;BME280;42803;55.762;38.084;2024-01-30T07:08:20;100645.16;;;-0.47;100.00
53011;BME280;42803;55.762;38.084;2024-01-30T07:10:52;100647.28;;;-0.50;100.00
53011;BME280;42803;55.762;38.084;2024-01-30T07:13:27;100663.81;;;-0.48;100.00
53011;BME280;42803;55.762;38.084;2024-01-30T07:15:57;100660.53;;;-0.47;100.00
53011;BME280;42803;55.762;38.084;2024-01-30T07:18:26;100662.59;;;-0.44;100.00
53011;BME280;42803;55.762;38.084;2024-01-30T07:20:56;100660.47;;;-0.41;100.00
53011;BME280;42803;55.762;38.084;2024-01-30T07:23:25;100662.13;;;-0.42;100.00
53011;BME280;42803;55.762;38.084;2024-01-30T07:25:55;100665.66;;;-0.47;100.00
53011;BME280;42803;55.762;38.084;2024-01-30T07:28:25;100668.66;;;-0.44;100.00
53011;BME280;42803;55.762;38.084;2024-01-30T07:30:54;100661.81;;;-0.38;100.00
53011;BME280;42803;55.762;38.084;2024-01-30T07:33:23;100656.47;;;-0.39;100.00
53011;BME280;42803;55.762;38.084;2024-01-30T07:35:53;100661.53;;;-0.34;100.00
53011;BME280;42803;55.762;38.084;2024-01-30T07:38:22;100651.47;;;-0.32;100.00
53011;BME280;42803;55.762;38.084;2024-01-30T07:40:51;100668.41;;;-0.27;100.00
53011;BME280;42803;55.762;38.084;2024-01-30T07:43:22;100662.66;;;-0.32;100.00
53011;BME280;42803;55.762;38.084;2024-01-30T07:45:52;100661.66;;;-0.27;100.00
53011;BME280;42803;55.762;38.084;2024-01-30T07:48:21;100662.56;;;-0.26;100.00
53011;BME280;42803;55.762;38.084;2024-01-30T07:50:50;100668.94;;;-0.30;100.00
53011;BME280;42803;55.762;38.084;2024-01-30T07:53:21;100666.19;;;-0.18;100.00
53011;BME280;42803;55.762;38.084;2024-01-30T07:55:50;100644.97;;;-0.05;100.00
53011;BME280;42803;55.762;38.084;2024-01-30T07:58:19;100651.75;;;-0.05;100.00
53011;BME280;42803;55.762;38.084;2024-01-30T08:00:50;100652.88;;;-0.03;100.00
53011;BME280;42803;55.762;38.084;2024-01-30T08:03:21;100655.16;;;0.01;100.00
53011;BME280;42803;55.762;38.084;2024-01-30T08:05:50;100642.03;;;0.05;100.00
53011;BME280;42803;55.762;38.084;2024-01-30T08:08:19;100645.63;;;0.00;100.00
53011;BME280;42803;55.762;38.084;2024-01-30T08:10:48;100662.63;;;-0.01;100.00
53011;BME280;42803;55.762;38.084;2024-01-30T08:13:17;100661.69;;;-0.01;100.00
53011;BME280;42803;55.762;38.084;2024-01-30T08:15:47;100666.34;;;0.02;100.00
53011;BME280;42803;55.762;38.084;2024-01-30T08:18:17;100666.16;;;0.00;100.00
53011;BME280;42803;55.762;38.084;2024-01-30T08:20:47;100663.16;;;-0.03;100.00
53011;BME280;42803;55.762;38.084;2024-01-30T08:23:16;100662.25;;;-0.04;100.00
53011;BME280;42803;55.762;38.084;2024-01-30T08:25:46;100665.50;;;-0.05;100.00
53011;BME280;42803;55.762;38.084;2024-01-30T08:28:15;100668.47;;;-0.14;100.00
53011;BME280;42803;55.762;38.084;2024-01-30T08:30:47;100670.50;;;-0.12;100.00
53011;BME280;42803;55.762;38.084;2024-01-30T08:33:21;100669.81;;;-0.11;100.00
53011;BME280;42803;55.762;38.084;2024-01-30T08:35:50;100665.66;;;-0.16;100.00
53011;BME280;42803;55.762;38.084;2024-01-30T08:38:20;100669.88;;;-0.16;100.00
53011;BME280;42803;55.762;38.084;2024-01-30T08:40:49;100658.19;;;-0.14;100.00
53011;BME280;42803;55.762;38.084;2024-01-30T08:43:18;100670.19;;;-0.08;100.00
53011;BME280;42803;55.762;38.084;2024-01-30T08:45:48;100663.34;;;-0.14;100.00
53011;BME280;42803;55.762;38.084;2024-01-30T08:48:17;100670.94;;;-0.09;100.00
53011;BME280;42803;55.762;38.084;2024-01-30T08:50:48;100668.34;;;-0.09;100.00
53011;BME280;42803;55.762;38.084;2024-01-30T08:53:18;100666.03;;;-0.07;100.00
53011;BME280;42803;55.762;38.084;2024-01-30T08:55:48;100666.94;;;-0.07;100.00
53011;BME280;42803;55.762;38.084;2024-01-30T08:58:17;100665.59;;;-0.10;100.00
53011;BME280;42803;55.762;38.084;2024-01-30T09:00:47;100666.03;;;-0.07;100.00
53011;BME280;42803;55.762;38.084;2024-01-30T09:03:16;100666.72;;;-0.08;100.00
53011;BME280;42803;55.762;38.084;2024-01-30T09:05:47;100653.00;;;0.04;100.00
53011;BME280;42803;55.762;38.084;2024-01-30T09:08:17;100672.09;;;0.06;100.00
53011;BME280;42803;55.762;38.084;2024-01-30T09:10:47;100663.66;;;0.07;100.00
53011;BME280;42803;55.762;38.084;2024-01-30T09:13:18;100673.53;;;0.04;100.00
53011;BME280;42803;55.762;38.084;2024-01-30T09:15:48;100676.13;;;0.04;100.00
53011;BME280;42803;55.762;38.084;2024-01-30T09:18:18;100678.88;;;0.06;100.00
53011;BME280;42803;55.762;38.084;2024-01-30T09:20:51;100673.41;;;-0.03;100.00
53011;BME280;42803;55.762;38.084;2024-01-30T09:23:21;100677.09;;;-0.01;100.00
53011;BME280;42803;55.762;38.084;2024-01-30T09:25:50;100665.28;;;-0.06;100.00
53011;BME280;42803;55.762;38.084;2024-01-30T09:28:20;100670.44;;;-0.06;100.00
53011;BME280;42803;55.762;38.084;2024-01-30T09:30:54;100665.41;;;0.01;100.00
53011;BME280;42803;55.762;38.084;2024-01-30T09:33:26;100672.03;;;0.12;100.00
53011;BME280;42803;55.762;38.084;2024-01-30T09:35:58;100660.91;;;0.18;100.00
53011;BME280;42803;55.762;38.084;2024-01-30T09:38:28;100663.47;;;0.18;100.00
53011;BME280;42803;55.762;38.084;2024-01-30T09:41:03;100659.06;;;0.17;100.00
53011;BME280;42803;55.762;38.084;2024-01-30T09:43:38;100657.13;;;0.22;100.00
53011;BME280;42803;55.762;38.084;2024-01-30T09:46:11;100660.63;;;0.22;100.00
53011;BME280;42803;55.762;38.084;2024-01-30T09:48:43;100656.13;;;0.27;100.00
53011;BME280;42803;55.762;38.084;2024-01-30T09:51:17;100652.34;;;0.31;100.00
53011;BME280;42803;55.762;38.084;2024-01-30T09:53:48;100654.78;;;0.23;100.00
53011;BME280;42803;55.762;38.084;2024-01-30T09:56:19;100660.63;;;0.22;100.00
53011;BME280;42803;55.762;38.084;2024-01-30T09:58:48;100667.63;;;0.23;100.00
53011;BME280;42803;55.762;38.084;2024-01-30T10:01:17;100660.84;;;0.24;100.00
53011;BME280;42803;55.762;38.084;2024-01-30T10:03:49;100656.94;;;0.33;100.00
53011;BME280;42803;55.762;38.084;2024-01-30T10:06:22;100656.75;;;0.32;100.00
53011;BME280;42803;55.762;38.084;2024-01-30T10:08:53;100657.75;;;0.27;100.00
53011;BME280;42803;55.762;38.084;2024-01-30T10:11:23;100662.28;;;0.35;100.00
53011;BME280;42803;55.762;38.084;2024-01-30T10:13:54;100668.13;;;0.34;100.00
53011;BME280;42803;55.762;38.084;2024-01-30T10:16:24;100662.88;;;0.27;100.00
53011;BME280;42803;55.762;38.084;2024-01-30T10:18:53;100663.41;;;0.24;100.00
53011;BME280;42803;55.762;38.084;2024-01-30T10:21:24;100669.16;;;0.29;100.00
53011;BME280;42803;55.762;38.084;2024-01-30T10:23:53;100679.84;;;0.32;100.00
53011;BME280;42803;55.762;38.084;2024-01-30T10:26:23;100671.84;;;0.36;100.00
53011;BME280;42803;55.762;38.084;2024-01-30T10:28:52;100672.34;;;0.33;100.00
53011;BME280;42803;55.762;38.084;2024-01-30T10:31:22;100667.19;;;0.33;100.00
53011;BME280;42803;55.762;38.084;2024-01-30T10:33:52;100645.13;;;0.41;100.00
53011;BME280;42803;55.762;38.084;2024-01-30T10:36:40;100653.78;;;0.54;100.00
53011;BME280;42803;55.762;38.084;2024-01-30T10:39:14;100645.66;;;0.51;100.00
53011;BME280;42803;55.762;38.084;2024-01-30T10:41:47;100639.59;;;0.51;100.00
53011;BME280;42803;55.762;38.084;2024-01-30T10:44:19;100647.81;;;0.48;100.00
53011;BME280;42803;55.762;38.084;2024-01-30T10:46:58;100647.19;;;0.56;100.00
53011;BME280;42803;55.762;38.084;2024-01-30T10:49:30;100640.00;;;0.54;100.00
53011;BME280;42803;55.762;38.084;2024-01-30T10:52:03;100649.44;;;0.60;100.00
53011;BME280;42803;55.762;38.084;2024-01-30T10:54:34;100647.78;;;0.61;100.00
53011;BME280;42803;55.762;38.084;2024-01-30T10:57:05;100663.53;;;0.69;100.00
53011;BME280;42803;55.762;38.084;2024-01-30T10:59:35;100660.97;;;0.69;100.00
53011;BME280;42803;55.762;38.084;2024-01-30T11:02:05;100655.59;;;0.68;100.00
53011;BME280;42803;55.762;38.084;2024-01-30T11:04:39;100665.28;;;0.63;100.00
53011;BME280;42803;55.762;38.084;2024-01-30T11:07:18;100670.00;;;0.60;100.00
53011;BME280;42803;55.762;38.084;2024-01-30T11:09:49;100675.00;;;0.53;100.00
53011;BME280;42803;55.762;38.084;2024-01-30T11:12:22;100665.06;;;0.49;100.00
53011;BME280;42803;55.762;38.084;2024-01-30T11:15:02;100669.81;;;0.46;100.00
53011;BME280;42803;55.762;38.084;2024-01-30T11:17:49;100662.78;;;0.45;100.00
53011;BME280;42803;55.762;38.084;2024-01-30T11:20:21;100657.84;;;0.34;100.00
53011;BME280;42803;55.762;38.084;2024-01-30T11:22:55;100668.66;;;0.31;100.00
53011;BME280;42803;55.762;38.084;2024-01-30T11:25:25;100664.44;;;0.32;100.00
53011;BME280;42803;55.762;38.084;2024-01-30T11:27:55;100669.16;;;0.29;100.00
53011;BME280;42803;55.762;38.084;2024-01-30T11:30:25;100670.56;;;0.27;100.00
53011;BME280;42803;55.762;38.084;2024-01-30T11:33:02;100676.25;;;0.24;100.00
53011;BME280;42803;55.762;38.084;2024-01-30T11:35:35;100693.00;;;0.28;100.00
53011;BME280;42803;55.762;38.084;2024-01-30T11:38:06;100688.84;;;0.22;100.00
53011;BME280;42803;55.762;38.084;2024-01-30T11:40:38;100680.03;;;0.20;100.00
53011;BME280;42803;55.762;38.084;2024-01-30T11:43:08;100679.13;;;0.20;100.00
53011;BME280;42803;55.762;38.084;2024-01-30T11:45:38;100701.78;;;0.17;100.00
53011;BME280;42803;55.762;38.084;2024-01-30T11:48:09;100702.72;;;0.17;100.00
53011;BME280;42803;55.762;38.084;2024-01-30T11:50:44;100699.03;;;0.15;100.00
53011;BME280;42803;55.762;38.084;2024-01-30T11:53:25;100702.53;;;0.16;100.00
53011;BME280;42803;55.762;38.084;2024-01-30T11:55:54;100690.31;;;0.20;100.00
53011;BME280;42803;55.762;38.084;2024-01-30T11:58:25;100708.47;;;0.22;100.00
53011;BME280;42803;55.762;38.084;2024-01-30T12:00:55;100704.78;;;0.20;100.00
53011;BME280;42803;55.762;38.084;2024-01-30T12:03:24;100705.59;;;0.13;100.00
53011;BME280;42803;55.762;38.084;2024-01-30T12:05:58;100704.88;;;0.14;100.00
53011;BME280;42803;55.762;38.084;2024-01-30T12:08:29;100710.00;;;0.14;100.00
53011;BME280;42803;55.762;38.084;2024-01-30T12:10:58;100719.28;;;0.19;100.00
53011;BME280;42803;55.762;38.084;2024-01-30T12:13:29;100710.22;;;0.16;100.00
53011;BME280;42803;55.762;38.084;2024-01-30T12:16:04;100712.56;;;0.14;100.00
53011;BME280;42803;55.762;38.084;2024-01-30T12:18:37;100718.44;;;0.13;100.00
53011;BME280;42803;55.762;38.084;2024-01-30T12:21:07;100722.22;;;0.10;100.00
53011;BME280;42803;55.762;38.084;2024-01-30T12:23:38;100712.13;;;0.11;100.00
53011;BME280;42803;55.762;38.084;2024-01-30T12:26:07;100713.16;;;0.06;100.00
53011;BME280;42803;55.762;38.084;2024-01-30T12:28:37;100716.66;;;0.07;100.00
53011;BME280;42803;55.762;38.084;2024-01-30T12:31:16;100715.22;;;0.09;100.00
53011;BME280;42803;55.762;38.084;2024-01-30T12:33:49;100715.53;;;0.05;100.00
53011;BME280;42803;55.762;38.084;2024-01-30T12:36:18;100720.38;;;0.09;100.00
53011;BME280;42803;55.762;38.084;2024-01-30T12:38:49;100725.94;;;0.12;100.00
53011;BME280;42803;55.762;38.084;2024-01-30T12:41:20;100720.78;;;0.12;100.00
53011;BME280;42803;55.762;38.084;2024-01-30T12:43:49;100723.25;;;0.17;100.00
53011;BME280;42803;55.762;38.084;2024-01-30T12:46:19;100710.84;;;0.20;100.00
53011;BME280;42803;55.762;38.084;2024-01-30T12:48:49;100718.25;;;0.24;100.00
53011;BME280;42803;55.762;38.084;2024-01-30T12:51:19;100726.06;;;0.32;100.00
53011;BME280;42803;55.762;38.084;2024-01-30T12:53:50;100713.53;;;0.40;100.00